Time;durP1;ratioP1;P1;durP2;ratioP2;P2;SDS_P1;SDS_P2;PMS_P1;PMS_P2;Temp;Humidity;BMP_temperature;BMP_pressure;BME280_temperature;BME280_humidity;BME280_pressure;Samples;Min_cycle;Max_cycle;Signal;HPM_P1;HPM_P2
2022/06/20 00:00:29;;;;;;;6.65;1.40;;;17.60;95.10;;;;;;5024863;28;20817;-37
2022/06/20 00:02:59;;;;;;;7.13;1.58;;;17.60;95.10;;;;;;5025384;28;20932;-37
2022/06/20 00:34:35;;;;;;;10.43;1.90;;;17.90;96.20;;;;;;5028792;28;20206;-37
2022/06/20 00:37:23;;;;;;;4.68;1.70;;;17.80;95.70;;;;;;5031155;28;20808;-33
2022/06/20 00:39:50;;;;;;;6.82;2.05;;;17.80;95.80;;;;;;5044446;28;20249;-33
2022/06/20 00:42:20;;;;;;;7.80;1.83;;;17.80;95.90;;;;;;5046437;28;20759;-33
2022/06/20 00:45:04;;;;;;;6.88;1.65;;;17.80;96.00;;;;;;5045806;28;20879;-33
2022/06/20 00:47:36;;;;;;;8.05;2.00;;;17.80;96.10;;;;;;5046491;28;20220;-33
2022/06/20 00:54:39;;;;;;;8.70;1.80;;;17.70;96.30;;;;;;5033903;28;20330;-33
2022/06/20 00:57:33;;;;;;;4.75;1.65;;;17.60;96.40;;;;;;5045039;28;20326;-33
2022/06/20 01:00:10;;;;;;;7.40;1.88;;;17.60;96.50;;;;;;5044987;28;20668;-33
2022/06/20 01:02:48;;;;;;;7.45;1.50;;;17.50;96.30;;;;;;5036592;28;20201;-33
2022/06/20 01:05:43;;;;;;;7.22;1.50;;;17.50;96.20;;;;;;5044070;28;20250;-33
2022/06/20 01:08:21;;;;;;;6.43;1.48;;;17.50;96.00;;;;;;5044371;28;20228;-33
2022/06/20 01:11:04;;;;;;;8.70;2.00;;;17.60;96.00;;;;;;5044769;28;20232;-33
2022/06/20 01:13:34;;;;;;;8.98;1.60;;;17.50;96.30;;;;;;5045461;28;20217;-37
2022/06/20 01:16:19;;;;;;;7.45;2.10;;;17.50;96.20;;;;;;5040463;28;20212;-37
2022/06/20 01:18:54;;;;;;;6.53;1.80;;;17.40;96.40;;;;;;5036907;28;20204;-37
2022/06/20 01:21:32;;;;;;;8.00;1.77;;;17.40;96.00;;;;;;5047640;28;20227;-37
2022/06/20 01:24:27;;;;;;;5.75;1.83;;;17.40;96.10;;;;;;5037004;28;20210;-37
2022/06/20 01:27:31;;;;;;;6.03;1.50;;;17.40;96.10;;;;;;5045932;28;20675;-37
2022/06/20 01:29:58;;;;;;;7.07;1.92;;;17.40;96.20;;;;;;5047622;28;20767;-37
2022/06/20 01:32:28;;;;;;;7.57;1.70;;;17.40;96.00;;;;;;5040929;28;20208;-37
2022/06/20 01:35:01;;;;;;;8.32;1.85;;;17.40;96.00;;;;;;5050326;28;20254;-37
2022/06/20 01:37:34;;;;;;;10.02;1.80;;;17.40;96.00;;;;;;5048071;28;20695;-38
2022/06/20 01:40:07;;;;;;;10.73;1.98;;;17.40;96.10;;;;;;5048685;28;20617;-37
2022/06/20 01:42:38;;;;;;;6.40;1.52;;;17.30;96.30;;;;;;5048052;28;20235;-37
2022/06/20 01:48:09;;;;;;;7.90;1.77;;;17.30;96.40;;;;;;5047526;28;20227;-37
2022/06/20 01:50:37;;;;;;;6.28;1.88;;;17.30;96.20;;;;;;5047810;28;20662;-37
2022/06/20 01:53:10;;;;;;;7.57;1.73;;;17.20;96.20;;;;;;5048412;28;20786;-37
2022/06/20 01:55:37;;;;;;;7.20;2.35;;;17.20;96.00;;;;;;5048969;28;20642;-38
2022/06/20 01:58:20;;;;;;;8.05;2.13;;;17.20;96.20;;;;;;5046357;28;20615;-37
2022/06/20 02:00:50;;;;;;;7.90;1.85;;;17.20;96.40;;;;;;5045689;28;20200;-37
2022/06/20 02:03:19;;;;;;;11.65;2.05;;;17.20;96.20;;;;;;5046306;28;20356;-37
2022/06/20 02:05:54;;;;;;;7.10;1.95;;;17.10;96.30;;;;;;5048958;28;20670;-37
2022/06/20 02:08:23;;;;;;;6.00;2.13;;;17.00;96.30;;;;;;5045773;28;20282;-37
2022/06/20 02:11:02;;;;;;;9.05;2.22;;;17.00;96.10;;;;;;5045811;28;20311;-36
2022/06/20 02:13:38;;;;;;;4.82;1.63;;;17.10;96.50;;;;;;5048305;28;20265;-38
2022/06/20 02:16:10;;;;;;;7.78;1.92;;;17.10;96.20;;;;;;5049051;28;20234;-37
2022/06/20 02:18:40;;;;;;;10.38;1.88;;;17.00;96.40;;;;;;5046828;28;20189;-37
2022/06/20 02:21:17;;;;;;;10.68;2.10;;;17.00;96.50;;;;;;5049057;28;20216;-37
2022/06/20 02:23:50;;;;;;;8.38;2.20;;;16.90;96.40;;;;;;5047169;28;20204;-37
2022/06/20 02:26:19;;;;;;;4.10;1.65;;;17.00;96.50;;;;;;5047336;28;20209;-37
2022/06/20 02:29:08;;;;;;;7.13;1.75;;;16.90;96.40;;;;;;5048333;28;20204;-37
2022/06/20 02:31:39;;;;;;;6.10;2.28;;;16.90;97.10;;;;;;5047323;28;20216;-37
2022/06/20 02:34:07;;;;;;;8.63;1.85;;;16.80;96.70;;;;;;5047124;28;20228;-37
2022/06/20 02:36:34;;;;;;;8.43;2.03;;;16.80;96.50;;;;;;5062293;28;20234;-37
2022/06/20 02:39:04;;;;;;;7.88;1.83;;;16.80;96.80;;;;;;5047564;28;20274;-37
2022/06/20 02:41:36;;;;;;;9.88;2.05;;;16.80;97.20;;;;;;5049005;28;20204;-37
2022/06/20 02:44:19;;;;;;;6.10;1.85;;;16.80;97.10;;;;;;5047003;28;20216;-37
2022/06/20 02:46:48;;;;;;;7.88;1.98;;;16.80;96.80;;;;;;5048323;28;20218;-37
2022/06/20 02:49:21;;;;;;;7.75;1.75;;;16.80;96.50;;;;;;5046960;28;20566;-37
2022/06/20 02:51:51;;;;;;;4.90;1.77;;;16.80;96.80;;;;;;5047450;28;20587;-37
2022/06/20 02:54:22;;;;;;;6.18;2.20;;;16.80;96.60;;;;;;5046182;28;20224;-37
2022/06/20 02:57:00;;;;;;;7.50;2.55;;;16.80;96.70;;;;;;5048041;28;20319;-37
2022/06/20 02:59:32;;;;;;;7.65;1.33;;;16.70;97.00;;;;;;5044039;28;20199;-37
2022/06/20 03:02:11;;;;;;;5.72;1.80;;;16.70;96.80;;;;;;5046109;28;20238;-37
2022/06/20 03:04:42;;;;;;;8.25;2.08;;;16.70;96.80;;;;;;5044656;28;20207;-33
2022/06/20 03:07:14;;;;;;;6.30;2.08;;;16.70;96.80;;;;;;5045854;28;20208;-33
2022/06/20 03:09:46;;;;;;;8.50;1.98;;;16.70;96.80;;;;;;5039015;28;20212;-33
2022/06/20 03:12:15;;;;;;;7.38;1.90;;;16.70;97.10;;;;;;5040670;28;20273;-33
2022/06/20 03:15:08;;;;;;;7.35;2.35;;;16.60;97.00;;;;;;5046350;28;20585;-33
2022/06/20 03:17:35;;;;;;;8.85;1.70;;;16.60;97.20;;;;;;5036417;28;20291;-33
2022/06/20 03:20:05;;;;;;;6.70;1.50;;;16.60;96.80;;;;;;5045466;28;20200;-33
2022/06/20 03:22:53;;;;;;;7.40;1.80;;;16.60;96.80;;;;;;5061022;28;20241;-33
2022/06/20 03:25:21;;;;;;;8.00;1.58;;;16.60;96.80;;;;;;5039105;28;20639;-37
2022/06/20 03:27:52;;;;;;;7.18;1.60;;;16.70;96.40;;;;;;5044501;28;20323;-37
2022/06/20 03:30:23;;;;;;;7.45;1.95;;;16.60;96.80;;;;;;5047048;28;20204;-37
2022/06/20 03:32:50;;;;;;;7.32;1.63;;;16.60;96.90;;;;;;5045449;28;20317;-37
2022/06/20 03:35:20;;;;;;;5.72;1.50;;;16.60;96.70;;;;;;5044654;28;20636;-37
2022/06/20 03:37:52;;;;;;;7.05;1.40;;;16.60;96.60;;;;;;5046414;28;20232;-37
2022/06/20 03:40:22;;;;;;;6.30;1.77;;;16.70;96.60;;;;;;5042637;28;20641;-37
2022/06/20 03:42:55;;;;;;;8.73;1.50;;;16.70;96.60;;;;;;5046389;28;20602;-37
2022/06/20 03:45:27;;;;;;;4.60;1.35;;;16.70;96.80;;;;;;5046826;28;20953;-38
2022/06/20 03:48:13;;;;;;;5.40;1.35;;;16.70;96.50;;;;;;5043211;28;20289;-37
2022/06/20 03:50:49;;;;;;;10.10;1.85;;;16.70;96.90;;;;;;5046839;28;20748;-37
2022/06/20 03:53:19;;;;;;;6.05;1.80;;;16.70;96.80;;;;;;5045429;28;20226;-37
2022/06/20 03:56:27;;;;;;;8.20;1.47;;;16.70;96.70;;;;;;5045302;28;20196;-37
2022/06/20 03:59:03;;;;;;;5.70;1.45;;;16.70;96.80;;;;;;5044696;28;20215;-37
2022/06/20 04:01:45;;;;;;;4.55;1.50;;;16.60;96.60;;;;;;5040486;28;20591;-37
2022/06/20 04:04:27;;;;;;;3.65;1.50;;;16.70;96.60;;;;;;5037805;28;20200;-37
2022/06/20 04:07:07;;;;;;;5.13;1.40;;;16.70;96.60;;;;;;5044871;28;20215;-37
2022/06/20 04:12:44;;;;;;;2.42;1.33;;;16.70;96.90;;;;;;5045493;28;20247;-37
2022/06/20 04:15:43;;;;;;;5.38;1.35;;;16.70;96.90;;;;;;5047069;28;20196;-37
2022/06/20 04:18:31;;;;;;;5.78;1.45;;;16.70;97.00;;;;;;5047513;28;20204;-37
2022/06/20 04:21:00;;;;;;;6.27;1.50;;;16.70;96.70;;;;;;5026540;28;20687;-37
2022/06/20 04:23:35;;;;;;;7.28;1.48;;;16.70;96.60;;;;;;5033722;28;20230;-37
2022/06/20 04:26:31;;;;;;;8.27;1.58;;;16.70;96.70;;;;;;5046309;28;20214;-37
2022/06/20 04:29:10;;;;;;;12.13;1.70;;;16.70;96.60;;;;;;5044388;28;20220;-37
2022/06/20 04:32:01;;;;;;;5.72;1.23;;;16.80;96.80;;;;;;5028208;28;20282;-38
2022/06/20 04:34:39;;;;;;;5.68;1.40;;;16.80;97.10;;;;;;5035048;28;20235;-37
2022/06/20 04:37:18;;;;;;;9.43;1.77;;;16.80;96.70;;;;;;5045384;28;20235;-37
2022/06/20 04:39:58;;;;;;;7.50;2.00;;;16.70;96.90;;;;;;5044430;28;20658;-37
2022/06/20 04:42:37;;;;;;;6.35;1.90;;;16.70;96.80;;;;;;5036466;28;20249;-37
2022/06/20 04:45:10;;;;;;;5.05;1.58;;;16.70;96.80;;;;;;5046115;28;20286;-37
2022/06/20 04:47:59;;;;;;;4.43;1.57;;;16.70;96.90;;;;;;5045416;28;20399;-37
2022/06/20 04:50:29;;;;;;;5.38;1.63;;;16.70;96.90;;;;;;5044195;28;20315;-37
2022/06/20 04:53:05;;;;;;;8.07;1.92;;;16.70;96.70;;;;;;5048018;28;20220;-37
2022/06/20 04:55:43;;;;;;;5.72;1.35;;;16.70;96.80;;;;;;5050211;28;20207;-37
2022/06/20 04:58:23;;;;;;;10.77;1.85;;;16.70;96.70;;;;;;5048818;28;20231;-38
2022/06/20 05:00:52;;;;;;;6.18;1.38;;;16.70;97.00;;;;;;5044200;28;20332;-37
2022/06/20 05:03:42;;;;;;;5.53;1.52;;;16.70;96.80;;;;;;5027996;28;20299;-38
2022/06/20 05:06:23;;;;;;;6.75;1.45;;;16.70;96.80;;;;;;5047978;28;20254;-33
2022/06/20 05:09:02;;;;;;;4.68;1.70;;;16.70;96.90;;;;;;5046440;28;20196;-33
2022/06/20 05:11:38;;;;;;;4.45;1.58;;;16.60;97.20;;;;;;5047674;28;20674;-33
2022/06/20 05:14:08;;;;;;;6.53;2.10;;;16.60;97.10;;;;;;5048215;28;20220;-33
2022/06/20 05:16:47;;;;;;;9.65;2.20;;;16.60;97.00;;;;;;5047534;28;20203;-32
2022/06/20 05:19:27;;;;;;;8.80;2.07;;;16.60;97.50;;;;;;5047616;28;20239;-33
2022/06/20 05:22:00;;;;;;;3.97;1.35;;;16.60;97.40;;;;;;5037229;28;20303;-33
2022/06/20 05:24:35;;;;;;;8.45;1.80;;;16.60;97.20;;;;;;5045085;28;20372;-33
2022/06/20 05:27:13;;;;;;;7.03;1.83;;;16.60;97.00;;;;;;5050013;28;20210;-34
2022/06/20 05:29:44;;;;;;;7.45;1.73;;;16.60;97.40;;;;;;5048291;28;20598;-33
2022/06/20 05:32:17;;;;;;;7.47;1.80;;;16.60;97.30;;;;;;5048883;28;20844;-33
2022/06/20 05:35:00;;;;;;;7.38;1.88;;;16.60;97.30;;;;;;5047857;28;20823;-33
2022/06/20 05:37:42;;;;;;;6.07;1.67;;;16.60;97.30;;;;;;5046370;28;20235;-33
2022/06/20 05:40:38;;;;;;;4.78;1.67;;;16.50;97.40;;;;;;5038342;28;20287;-33
2022/06/20 05:43:20;;;;;;;6.22;1.85;;;16.60;97.50;;;;;;5034617;28;20458;-33
2022/06/20 05:45:52;;;;;;;9.90;2.00;;;16.60;97.50;;;;;;5031597;28;20299;-34
2022/06/20 05:48:27;;;;;;;4.93;1.65;;;16.60;97.60;;;;;;5042433;28;20254;-33
2022/06/20 05:51:00;;;;;;;6.97;1.65;;;16.60;97.70;;;;;;5048519;28;20239;-33
2022/06/20 05:53:38;;;;;;;3.58;1.30;;;16.70;97.50;;;;;;5036722;28;20472;-33
2022/06/20 05:56:20;;;;;;;7.57;1.70;;;16.70;97.30;;;;;;5041131;28;20600;-33
2022/06/20 05:58:51;;;;;;;9.70;1.95;;;16.70;97.40;;;;;;5049159;28;20659;-33
2022/06/20 06:01:30;;;;;;;5.80;2.45;;;16.80;97.60;;;;;;5047110;28;20207;-32
2022/06/20 06:04:18;;;;;;;6.75;2.08;;;16.80;97.50;;;;;;5043139;28;20204;-32
2022/06/20 06:06:53;;;;;;;6.55;2.40;;;16.80;97.90;;;;;;5043864;28;20774;-33
2022/06/20 06:09:32;;;;;;;8.38;1.77;;;16.80;97.40;;;;;;5046261;28;20226;-33
2022/06/20 06:12:03;;;;;;;4.53;1.52;;;16.80;97.40;;;;;;5047451;28;20254;-33
2022/06/20 06:15:06;;;;;;;6.47;1.83;;;16.90;97.50;;;;;;5046763;28;20246;-33
2022/06/20 06:17:50;;;;;;;6.82;2.42;;;16.90;97.60;;;;;;5043845;28;20204;-33
2022/06/20 06:20:22;;;;;;;4.70;1.80;;;16.90;97.60;;;;;;5054039;28;20225;-33
2022/06/20 06:22:54;;;;;;;7.22;1.77;;;16.90;97.60;;;;;;5040213;28;20211;-33
2022/06/20 06:25:21;;;;;;;7.57;1.90;;;16.90;97.40;;;;;;5055027;28;20640;-33
2022/06/20 06:27:53;;;;;;;5.93;2.13;;;16.90;97.40;;;;;;5046168;28;20322;-33
2022/06/20 06:30:31;;;;;;;8.75;2.20;;;16.90;97.60;;;;;;5048024;28;20200;-33
2022/06/20 06:33:09;;;;;;;10.75;2.53;;;16.90;97.60;;;;;;5055742;28;20241;-33
2022/06/20 06:35:45;;;;;;;7.30;2.25;;;16.90;97.90;;;;;;5045288;28;20217;-34
2022/06/20 06:38:28;;;;;;;8.57;1.77;;;16.90;97.90;;;;;;5050665;28;20212;-33
2022/06/20 06:40:56;;;;;;;5.10;1.83;;;16.80;97.80;;;;;;5045195;28;20202;-33
2022/06/20 06:43:32;;;;;;;5.47;1.60;;;16.90;97.80;;;;;;5048513;28;20589;-33
2022/06/20 06:46:01;;;;;;;4.88;1.98;;;16.90;97.70;;;;;;5046232;28;20196;-33
2022/06/20 06:48:50;;;;;;;6.60;1.80;;;16.90;97.90;;;;;;5046130;28;20238;-33
2022/06/20 06:51:44;;;;;;;6.70;1.92;;;16.90;97.70;;;;;;5048252;28;20288;-33
2022/06/20 06:54:26;;;;;;;4.82;2.10;;;16.90;98.00;;;;;;5044659;28;20337;-33
2022/06/20 06:57:43;;;;;;;7.10;2.10;;;16.90;98.00;;;;;;5045519;28;20694;-33
2022/06/20 07:00:20;;;;;;;4.95;1.73;;;16.90;98.30;;;;;;5039960;28;20303;-33
2022/06/20 07:03:21;;;;;;;7.18;2.10;;;17.00;98.10;;;;;;5047385;28;20243;-33
2022/06/20 07:06:25;;;;;;;5.72;1.90;;;17.00;98.30;;;;;;5023157;28;20434;-32
2022/06/20 07:09:27;;;;;;;6.78;1.80;;;16.90;99.10;;;;;;5038296;28;20638;-33
2022/06/20 07:12:27;;;;;;;7.78;1.60;;;17.00;98.40;;;;;;5057861;28;20309;-33
2022/06/20 07:15:19;;;;;;;4.35;1.90;;;17.00;98.40;;;;;;5043752;28;20234;-33
2022/06/20 07:18:20;;;;;;;4.95;1.90;;;17.00;98.40;;;;;;5046454;28;20667;-33
2022/06/20 07:20:48;;;;;;;7.57;1.83;;;17.00;98.30;;;;;;5040352;28;20203;-33
2022/06/20 07:23:18;;;;;;;10.05;2.40;;;17.00;98.40;;;;;;5046079;28;20444;-33
2022/06/20 07:25:49;;;;;;;3.78;1.60;;;17.10;98.30;;;;;;5046190;28;20224;-33
2022/06/20 07:28:35;;;;;;;7.95;2.10;;;17.10;98.40;;;;;;5045694;28;20209;-33
2022/06/20 07:31:08;;;;;;;4.50;1.73;;;17.20;98.40;;;;;;5045048;28;20554;-33
2022/06/20 07:33:42;;;;;;;6.90;2.13;;;17.30;98.60;;;;;;5044957;28;20216;-33
2022/06/20 07:36:16;;;;;;;7.63;1.77;;;17.40;98.60;;;;;;5049405;28;20232;-33
2022/06/20 07:39:05;;;;;;;6.40;2.03;;;17.40;98.40;;;;;;5046566;28;20204;-32
2022/06/20 07:41:45;;;;;;;4.60;1.85;;;17.50;99.00;;;;;;5043277;28;20683;-33
2022/06/20 07:44:15;;;;;;;4.07;1.90;;;17.50;98.50;;;;;;5045641;28;20235;-34
2022/06/20 07:46:51;;;;;;;5.43;1.95;;;17.60;98.90;;;;;;5049625;28;20626;-33
2022/06/20 07:49:31;;;;;;;6.18;2.10;;;17.60;98.60;;;;;;5040398;28;20200;-33
2022/06/20 07:52:25;;;;;;;7.95;2.00;;;17.70;98.70;;;;;;5035268;28;20282;-33
2022/06/20 07:54:59;;;;;;;4.35;1.75;;;17.70;98.60;;;;;;5029946;28;20630;-33
2022/06/20 07:57:40;;;;;;;6.00;1.75;;;17.70;98.50;;;;;;5041657;28;20201;-33
2022/06/20 08:00:15;;;;;;;8.35;1.88;;;17.80;98.50;;;;;;5043096;28;20237;-33
2022/06/20 08:03:18;;;;;;;4.25;1.83;;;17.80;98.40;;;;;;5026067;28;20244;-32
2022/06/20 08:05:55;;;;;;;5.68;1.95;;;17.90;98.40;;;;;;5041587;28;20388;-33
2022/06/20 08:08:37;;;;;;;4.72;1.50;;;17.80;98.90;;;;;;5044581;28;20188;-33
2022/06/20 08:11:40;;;;;;;6.45;1.90;;;17.80;98.60;;;;;;5046760;28;20220;-33
2022/06/20 08:14:27;;;;;;;6.63;1.77;;;17.90;98.40;;;;;;5042600;28;20904;-33
2022/06/20 08:16:59;;;;;;;4.10;1.52;;;17.90;98.30;;;;;;5029880;28;20204;-38
2022/06/20 08:19:30;;;;;;;6.18;1.67;;;17.90;98.20;;;;;;5048027;28;20588;-38
2022/06/20 08:22:20;;;;;;;6.57;1.90;;;17.80;98.10;;;;;;5028070;28;20197;-37
2022/06/20 08:24:55;;;;;;;4.95;1.63;;;17.70;97.80;;;;;;5035095;28;20240;-37
2022/06/20 08:27:37;;;;;;;7.43;1.83;;;17.60;97.50;;;;;;5041247;28;20218;-37
2022/06/20 08:30:28;;;;;;;4.78;1.50;;;17.60;97.50;;;;;;5045800;28;20249;-37
2022/06/20 08:33:04;;;;;;;5.38;1.42;;;17.60;97.50;;;;;;5046652;28;20218;-37
2022/06/20 08:35:53;;;;;;;5.45;1.70;;;17.60;97.40;;;;;;5040964;28;20215;-37
2022/06/20 08:38:31;;;;;;;4.60;1.70;;;17.70;97.50;;;;;;5036894;28;20250;-37
2022/06/20 08:41:11;;;;;;;4.40;1.90;;;17.80;97.60;;;;;;5041231;28;20200;-37
2022/06/20 08:43:59;;;;;;;6.40;2.08;;;17.90;97.60;;;;;;5055850;28;20815;-37
2022/06/20 08:46:57;;;;;;;6.35;1.77;;;18.00;97.60;;;;;;5043049;28;20241;-39
2022/06/20 08:49:48;;;;;;;4.63;1.40;;;18.10;97.70;;;;;;5032398;28;20193;-37
2022/06/20 08:52:38;;;;;;;4.45;1.50;;;18.20;97.70;;;;;;5042887;28;20273;-37
2022/06/20 08:55:29;;;;;;;4.75;1.30;;;18.30;97.60;;;;;;5040914;28;20314;-37
2022/06/20 08:57:58;;;;;;;4.20;1.27;;;18.40;97.50;;;;;;5041257;28;20625;-37
2022/06/20 09:01:16;;;;;;;3.88;1.02;;;18.40;97.40;;;;;;5041230;28;20258;-37
2022/06/20 09:04:29;;;;;;;3.83;1.65;;;18.40;96.80;;;;;;5041577;28;20303;-37
2022/06/20 09:07:07;;;;;;;3.67;1.50;;;18.40;97.00;;;;;;5043528;28;20248;-37
2022/06/20 09:09:50;;;;;;;2.90;1.63;;;18.50;97.20;;;;;;5044839;28;20238;-42
2022/06/20 09:12:38;;;;;;;4.43;1.38;;;18.50;97.10;;;;;;5043866;28;20239;-37
2022/06/20 09:15:07;;;;;;;5.38;1.40;;;18.50;96.90;;;;;;5042125;28;20327;-37
2022/06/20 09:17:59;;;;;;;4.00;1.15;;;18.50;96.80;;;;;;5044757;28;20266;-37
2022/06/20 09:20:38;;;;;;;3.78;1.20;;;18.60;96.80;;;;;;5040006;28;20221;-39
2022/06/20 09:23:27;;;;;;;2.22;1.40;;;18.70;96.90;;;;;;5039641;28;20216;-37
2022/06/20 09:26:05;;;;;;;5.60;1.35;;;18.70;96.90;;;;;;5037910;28;20236;-37
2022/06/20 09:29:13;;;;;;;3.10;1.38;;;18.70;96.70;;;;;;5057184;28;20252;-37
2022/06/20 09:32:05;;;;;;;6.95;1.80;;;18.80;96.80;;;;;;5043183;28;20212;-37
2022/06/20 09:34:34;;;;;;;4.47;1.20;;;18.80;96.80;;;;;;5040234;28;20734;-37
2022/06/20 09:37:28;;;;;;;3.55;1.33;;;18.90;97.00;;;;;;5043016;28;20336;-37
2022/06/20 09:40:44;;;;;;;4.20;1.27;;;19.00;97.00;;;;;;5043746;28;20197;-37
2022/06/20 09:43:19;;;;;;;3.00;1.48;;;19.00;96.90;;;;;;5038049;28;20266;-37
2022/06/20 09:45:50;;;;;;;3.83;1.70;;;19.10;97.20;;;;;;5044713;28;20215;-37
2022/06/20 09:48:31;;;;;;;2.15;1.23;;;19.10;97.30;;;;;;5043625;28;20224;-36
2022/06/20 09:51:37;;;;;;;4.65;1.70;;;19.20;97.30;;;;;;5048508;28;20762;-36
2022/06/20 09:54:22;;;;;;;6.25;2.30;;;19.30;97.30;;;;;;5047141;28;20232;-37
2022/06/20 09:56:50;;;;;;;4.40;1.80;;;19.40;97.30;;;;;;5045690;28;20200;-36
2022/06/20 09:59:54;;;;;;;3.65;1.60;;;19.40;97.20;;;;;;5043139;28;20210;-36
2022/06/20 10:02:30;;;;;;;2.58;1.40;;;19.50;97.20;;;;;;5046655;28;20239;-37
2022/06/20 10:05:12;;;;;;;2.88;1.50;;;19.60;97.20;;;;;;5043737;28;20292;-36
2022/06/20 10:07:53;;;;;;;3.03;1.45;;;19.70;97.30;;;;;;5045481;28;20200;-37
2022/06/20 10:10:42;;;;;;;4.25;1.50;;;19.80;97.50;;;;;;5038480;28;20220;-37
2022/06/20 10:13:25;;;;;;;3.17;1.42;;;19.90;97.20;;;;;;5039942;28;20570;-37
2022/06/20 10:16:00;;;;;;;2.53;1.42;;;19.90;96.60;;;;;;5042996;28;20223;-37
2022/06/20 10:19:01;;;;;;;3.20;1.40;;;19.90;96.30;;;;;;5046048;28;20616;-37
2022/06/20 10:21:46;;;;;;;4.32;1.50;;;19.90;96.70;;;;;;5044523;28;20207;-37
2022/06/20 10:24:28;;;;;;;4.43;1.60;;;19.90;96.80;;;;;;5045907;28;20200;-37
2022/06/20 10:27:12;;;;;;;2.65;1.40;;;20.00;96.90;;;;;;5045363;28;20342;-37
2022/06/20 10:30:06;;;;;;;2.88;1.50;;;20.00;97.10;;;;;;5042422;28;20312;-36
2022/06/20 10:32:57;;;;;;;3.90;1.30;;;20.10;96.80;;;;;;5009012;28;20300;-37
2022/06/20 10:35:47;;;;;;;5.47;1.65;;;20.00;96.20;;;;;;5047358;28;20302;-36
2022/06/20 10:38:39;;;;;;;6.38;1.95;;;20.00;96.50;;;;;;5045085;28;20702;-36
2022/06/20 10:42:07;;;;;;;3.05;1.60;;;20.00;96.20;;;;;;5041589;28;20209;-37
2022/06/20 10:45:15;;;;;;;3.38;1.40;;;20.00;96.50;;;;;;4971525;28;20409;-37
2022/06/20 10:48:20;;;;;;;4.03;1.63;;;20.10;96.40;;;;;;4928273;28;20564;-41
2022/06/20 10:50:48;;;;;;;4.53;1.52;;;20.10;96.50;;;;;;5044033;28;20315;-40
2022/06/20 10:53:35;;;;;;;4.15;1.45;;;20.20;96.70;;;;;;5042014;28;20607;-40
2022/06/20 10:56:17;;;;;;;1.25;1.13;;;20.20;96.70;;;;;;5043004;28;20236;-40
2022/06/20 10:59:18;;;;;;;2.78;1.20;;;20.40;96.90;;;;;;5046635;28;20826;-40
2022/06/20 11:02:04;;;;;;;5.88;2.10;;;20.40;96.40;;;;;;5033955;28;20204;-41
2022/06/20 11:05:00;;;;;;;4.05;1.80;;;20.50;95.70;;;;;;5043416;28;20965;-40
2022/06/20 11:07:36;;;;;;;2.92;1.75;;;20.40;96.10;;;;;;5042430;28;20235;-40
2022/06/20 11:10:16;;;;;;;3.30;1.85;;;20.50;96.20;;;;;;5044694;28;20220;-40
2022/06/20 11:12:55;;;;;;;3.72;1.60;;;20.50;96.40;;;;;;5045770;28;20203;-41
2022/06/20 11:15:37;;;;;;;3.63;1.60;;;20.60;96.60;;;;;;5042213;28;20223;-41
2022/06/20 11:18:17;;;;;;;2.53;1.63;;;20.70;96.60;;;;;;5042395;28;20225;-41
2022/06/20 11:20:49;;;;;;;4.32;1.63;;;20.70;96.30;;;;;;5045788;28;20203;-41
2022/06/20 11:23:45;;;;;;;2.90;1.80;;;20.70;96.30;;;;;;5045772;28;20220;-45
2022/06/20 11:26:25;;;;;;;7.00;1.65;;;20.70;96.10;;;;;;5050394;28;20212;-41
2022/06/20 11:29:01;;;;;;;3.35;1.80;;;20.70;96.20;;;;;;5044113;28;20239;-41
2022/06/20 11:32:06;;;;;;;6.20;2.00;;;20.80;96.50;;;;;;5045704;28;20212;-44
2022/06/20 11:35:17;;;;;;;2.83;1.45;;;20.90;96.70;;;;;;5038463;28;20223;-40
2022/06/20 11:37:55;;;;;;;5.50;1.92;;;21.00;96.30;;;;;;5039761;28;20298;-41
2022/06/20 11:40:28;;;;;;;2.70;1.98;;;21.00;96.40;;;;;;5044179;28;20228;-41
2022/06/20 11:43:31;;;;;;;8.18;1.80;;;21.10;96.30;;;;;;5037276;28;20952;-40
2022/06/20 11:46:36;;;;;;;4.40;1.70;;;21.10;96.00;;;;;;5034626;28;20222;-40
2022/06/20 11:49:18;;;;;;;3.10;1.90;;;21.10;96.30;;;;;;4996995;28;20224;-40
2022/06/20 11:52:22;;;;;;;5.45;1.88;;;21.10;96.20;;;;;;5044804;28;20627;-41
2022/06/20 11:55:15;;;;;;;3.28;2.03;;;21.10;95.90;;;;;;5042411;28;20668;-41
2022/06/20 11:57:49;;;;;;;4.05;2.00;;;21.20;96.30;;;;;;5043597;28;20244;-41
2022/06/20 12:00:21;;;;;;;4.97;2.25;;;21.20;96.30;;;;;;5038916;28;20265;-41
2022/06/20 12:03:04;;;;;;;6.38;1.85;;;21.20;95.90;;;;;;5046448;28;20212;-41
2022/06/20 12:05:43;;;;;;;3.65;1.40;;;21.20;95.80;;;;;;5045075;28;20317;-41
2022/06/20 12:08:25;;;;;;;3.70;1.90;;;21.20;95.80;;;;;;5043477;28;20242;-41
2022/06/20 12:10:56;;;;;;;3.60;1.70;;;21.30;95.70;;;;;;5043640;28;20273;-41
2022/06/20 12:13:44;;;;;;;2.83;1.95;;;21.40;96.10;;;;;;5045721;28;20678;-41
2022/06/20 12:16:28;;;;;;;3.30;1.90;;;21.40;96.10;;;;;;5045281;28;20675;-41
2022/06/20 12:24:50;;;;;;;6.18;2.30;;;21.50;95.80;;;;;;5047301;28;20208;-41
2022/06/20 12:27:19;;;;;;;6.40;2.35;;;21.50;95.60;;;;;;5042290;28;20295;-40
2022/06/20 12:29:48;;;;;;;2.72;1.63;;;21.50;95.40;;;;;;5043255;28;20207;-40
2022/06/20 12:32:24;;;;;;;4.47;2.00;;;21.50;95.70;;;;;;5041781;28;20214;-41
2022/06/20 12:35:17;;;;;;;3.92;2.28;;;21.50;94.30;;;;;;5042277;28;20212;-41
2022/06/20 12:38:05;;;;;;;3.10;1.73;;;21.40;94.70;;;;;;5041782;28;20224;-41
2022/06/20 12:40:39;;;;;;;4.40;1.92;;;21.50;95.50;;;;;;5041757;28;20204;-41
2022/06/20 12:43:14;;;;;;;4.13;1.80;;;21.50;95.70;;;;;;5044195;28;20324;-40
2022/06/20 12:46:04;;;;;;;5.10;2.05;;;21.60;95.10;;;;;;5044563;28;20208;-39
2022/06/20 12:48:40;;;;;;;4.75;2.25;;;21.50;94.90;;;;;;5044597;28;20223;-39
2022/06/20 12:51:22;;;;;;;5.18;2.50;;;21.50;94.60;;;;;;5060868;28;20566;-39
2022/06/20 12:54:41;;;;;;;3.17;1.67;;;21.50;94.70;;;;;;5045821;28;20204;-39
2022/06/20 12:57:55;;;;;;;5.00;1.80;;;21.50;95.00;;;;;;5029922;28;20246;-39
2022/06/20 13:00:38;;;;;;;5.07;2.08;;;21.60;95.30;;;;;;5038655;28;20836;-39
2022/06/20 13:03:52;;;;;;;3.78;2.05;;;21.70;95.40;;;;;;5042371;28;20215;-40
2022/06/20 13:07:05;;;;;;;5.97;2.50;;;21.70;95.00;;;;;;5035507;28;20228;-39
2022/06/20 13:10:00;;;;;;;2.88;1.80;;;21.70;95.20;;;;;;5030050;28;20574;-40
2022/06/20 13:12:38;;;;;;;6.18;2.05;;;21.70;95.00;;;;;;5045914;28;20329;-39
2022/06/20 13:15:37;;;;;;;3.10;1.90;;;21.80;94.60;;;;;;5043531;28;20239;-40
2022/06/20 13:18:38;;;;;;;3.90;2.20;;;21.80;94.40;;;;;;5050584;28;20258;-37
2022/06/20 13:21:23;;;;;;;4.43;2.08;;;21.80;94.80;;;;;;5062687;28;20313;-40
2022/06/20 13:23:50;;;;;;;8.40;2.50;;;21.80;94.80;;;;;;5037890;28;20333;-40
2022/06/20 13:26:26;;;;;;;5.70;2.20;;;21.80;94.60;;;;;;5045713;28;20208;-40
2022/06/20 13:29:16;;;;;;;4.75;1.98;;;21.80;94.70;;;;;;5041356;28;20811;-40
2022/06/20 13:31:57;;;;;;;4.85;2.38;;;21.90;94.90;;;;;;5048643;28;20670;-40
2022/06/20 13:34:32;;;;;;;6.20;2.67;;;22.00;95.10;;;;;;5047036;28;20709;-40
2022/06/20 13:37:42;;;;;;;4.55;2.05;;;22.00;95.10;;;;;;5038265;28;20275;-40
2022/06/20 13:40:25;;;;;;;4.85;2.33;;;22.10;94.80;;;;;;4979956;28;20268;-39
2022/06/20 13:43:25;;;;;;;4.35;2.10;;;22.20;95.10;;;;;;5033066;28;20867;-40
2022/06/20 13:46:08;;;;;;;4.15;2.08;;;22.20;95.20;;;;;;5047437;28;20215;-40
2022/06/20 13:48:45;;;;;;;4.68;2.42;;;22.30;94.40;;;;;;5043198;28;20250;-40
2022/06/20 13:51:59;;;;;;;5.00;2.00;;;22.20;94.30;;;;;;5056158;28;20200;-42
2022/06/20 13:54:50;;;;;;;6.00;2.47;;;22.30;94.10;;;;;;5047950;28;20211;-41
2022/06/20 13:57:42;;;;;;;4.82;1.90;;;22.10;94.20;;;;;;5046226;28;20204;-40
2022/06/20 14:00:15;;;;;;;4.35;2.08;;;22.20;94.70;;;;;;5044968;28;20287;-40
2022/06/20 14:02:48;;;;;;;6.38;2.55;;;22.30;94.60;;;;;;5052160;28;20200;-40
2022/06/20 14:05:28;;;;;;;5.40;2.10;;;22.30;94.20;;;;;;5036267;28;20634;-41
2022/06/20 14:08:08;;;;;;;3.13;1.80;;;22.30;94.20;;;;;;5044123;28;20242;-40
2022/06/20 14:10:47;;;;;;;4.60;1.98;;;22.30;94.60;;;;;;5043405;28;20192;-40
2022/06/20 14:13:29;;;;;;;7.93;2.20;;;22.40;94.90;;;;;;5046563;28;20634;-40
2022/06/20 14:16:37;;;;;;;5.28;2.25;;;22.40;94.30;;;;;;5045637;28;20598;-41
2022/06/20 14:19:12;;;;;;;3.53;1.60;;;22.50;94.60;;;;;;5046533;28;20253;-41
2022/06/20 14:21:46;;;;;;;5.88;2.00;;;22.50;94.80;;;;;;5045427;28;20207;-41
2022/06/20 14:24:31;;;;;;;2.53;1.75;;;22.60;95.00;;;;;;5042391;28;20709;-41
2022/06/20 14:27:05;;;;;;;4.57;1.85;;;22.60;94.70;;;;;;5047829;28;20207;-41
2022/06/20 14:29:41;;;;;;;4.03;1.80;;;22.70;94.70;;;;;;5045315;28;20192;-41
2022/06/20 14:32:08;;;;;;;5.03;2.13;;;22.70;94.50;;;;;;5046598;28;20224;-41
2022/06/20 14:38:16;;;;;;;3.72;1.52;;;22.70;94.20;;;;;;5062722;28;20249;-40
2022/06/20 14:40:58;;;;;;;4.57;2.25;;;22.80;94.30;;;;;;5049247;28;20784;-41
2022/06/20 14:43:27;;;;;;;3.90;1.70;;;22.80;93.60;;;;;;5044550;28;20686;-41
2022/06/20 14:46:18;;;;;;;4.55;2.25;;;22.80;94.40;;;;;;5062727;28;20202;-41
2022/06/20 14:49:14;;;;;;;4.75;2.00;;;22.80;93.10;;;;;;5065663;28;20219;-41